sensor_id;sensor_type;location;lat;lon;timestamp;P1;durP1;ratioP1;P2;durP2;ratioP2
2031;SDS011;27625;50.422;7.944;2022-07-29T00:02:36;11.07;;;2.70;;
2031;SDS011;27625;50.422;7.944;2022-07-29T00:05:03;4.67;;;2.80;;
2031;SDS011;27625;50.422;7.944;2022-07-29T00:07:30;5.03;;;2.10;;
2031;SDS011;27625;50.422;7.944;2022-07-29T00:09:56;7.20;;;2.60;;
2031;SDS011;27625;50.422;7.944;2022-07-29T00:12:24;4.80;;;2.30;;
2031;SDS011;27625;50.422;7.944;2022-07-29T00:14:52;6.60;;;2.60;;
2031;SDS011;27625;50.422;7.944;2022-07-29T00:17:19;5.10;;;2.60;;
2031;SDS011;27625;50.422;7.944;2022-07-29T00:19:47;5.03;;;2.30;;
2031;SDS011;27625;50.422;7.944;2022-07-29T00:22:13;6.90;;;2.77;;
2031;SDS011;27625;50.422;7.944;2022-07-29T00:24:39;5.03;;;3.00;;
2031;SDS011;27625;50.422;7.944;2022-07-29T00:27:06;9.73;;;3.00;;
2031;SDS011;27625;50.422;7.944;2022-07-29T00:29:32;4.00;;;2.43;;
2031;SDS011;27625;50.422;7.944;2022-07-29T00:31:59;6.00;;;2.37;;
2031;SDS011;27625;50.422;7.944;2022-07-29T00:34:25;6.23;;;2.50;;
2031;SDS011;27625;50.422;7.944;2022-07-29T00:37:11;5.33;;;2.33;;
2031;SDS011;27625;50.422;7.944;2022-07-29T00:39:37;6.70;;;2.73;;
2031;SDS011;27625;50.422;7.944;2022-07-29T00:42:04;4.57;;;2.30;;
2031;SDS011;27625;50.422;7.944;2022-07-29T00:44:32;5.47;;;2.50;;
2031;SDS011;27625;50.422;7.944;2022-07-29T00:47:02;6.30;;;2.57;;
2031;SDS011;27625;50.422;7.944;2022-07-29T00:49:29;4.10;;;2.63;;
2031;SDS011;27625;50.422;7.944;2022-07-29T00:51:55;5.87;;;2.40;;
2031;SDS011;27625;50.422;7.944;2022-07-29T00:54:23;6.00;;;2.93;;
2031;SDS011;27625;50.422;7.944;2022-07-29T00:56:50;6.73;;;2.57;;
2031;SDS011;27625;50.422;7.944;2022-07-29T00:59:16;5.60;;;2.70;;
2031;SDS011;27625;50.422;7.944;2022-07-29T01:01:43;4.90;;;2.70;;
2031;SDS011;27625;50.422;7.944;2022-07-29T01:04:09;7.97;;;2.90;;
2031;SDS011;27625;50.422;7.944;2022-07-29T01:06:36;5.93;;;2.40;;
2031;SDS011;27625;50.422;7.944;2022-07-29T01:09:03;6.87;;;2.47;;
2031;SDS011;27625;50.422;7.944;2022-07-29T01:11:31;8.60;;;2.80;;
2031;SDS011;27625;50.422;7.944;2022-07-29T01:13:57;9.43;;;2.60;;
2031;SDS011;27625;50.422;7.944;2022-07-29T01:16:24;8.93;;;2.90;;
2031;SDS011;27625;50.422;7.944;2022-07-29T01:19:00;5.13;;;2.60;;
2031;SDS011;27625;50.422;7.944;2022-07-29T01:21:37;4.73;;;3.10;;
2031;SDS011;27625;50.422;7.944;2022-07-29T01:24:20;4.73;;;2.60;;
2031;SDS011;27625;50.422;7.944;2022-07-29T01:26:59;6.13;;;2.40;;
2031;SDS011;27625;50.422;7.944;2022-07-29T01:29:33;5.93;;;2.70;;
2031;SDS011;27625;50.422;7.944;2022-07-29T01:32:02;4.43;;;2.30;;
2031;SDS011;27625;50.422;7.944;2022-07-29T01:34:35;4.70;;;2.67;;
2031;SDS011;27625;50.422;7.944;2022-07-29T01:37:15;5.20;;;2.77;;
2031;SDS011;27625;50.422;7.944;2022-07-29T01:39:45;4.50;;;2.73;;
2031;SDS011;27625;50.422;7.944;2022-07-29T01:42:14;5.60;;;2.93;;
2031;SDS011;27625;50.422;7.944;2022-07-29T01:44:48;7.03;;;2.77;;
2031;SDS011;27625;50.422;7.944;2022-07-29T01:47:20;6.70;;;3.13;;
2031;SDS011;27625;50.422;7.944;2022-07-29T01:49:50;4.70;;;2.80;;
2031;SDS011;27625;50.422;7.944;2022-07-29T01:52:20;5.37;;;2.60;;
2031;SDS011;27625;50.422;7.944;2022-07-29T01:54:51;4.97;;;3.00;;
2031;SDS011;27625;50.422;7.944;2022-07-29T01:57:20;4.20;;;2.50;;
2031;SDS011;27625;50.422;7.944;2022-07-29T01:59:54;8.50;;;3.17;;
2031;SDS011;27625;50.422;7.944;2022-07-29T02:02:22;6.10;;;3.07;;
2031;SDS011;27625;50.422;7.944;2022-07-29T02:04:49;4.10;;;2.73;;
2031;SDS011;27625;50.422;7.944;2022-07-29T02:07:17;5.30;;;3.17;;
2031;SDS011;27625;50.422;7.944;2022-07-29T02:09:45;4.97;;;3.27;;
2031;SDS011;27625;50.422;7.944;2022-07-29T02:12:13;5.90;;;2.63;;
2031;SDS011;27625;50.422;7.944;2022-07-29T02:14:42;4.30;;;2.90;;
2031;SDS011;27625;50.422;7.944;2022-07-29T02:17:12;4.47;;;2.60;;
2031;SDS011;27625;50.422;7.944;2022-07-29T02:19:40;5.97;;;3.20;;
2031;SDS011;27625;50.422;7.944;2022-07-29T02:22:08;5.40;;;3.07;;
2031;SDS011;27625;50.422;7.944;2022-07-29T02:24:34;5.90;;;3.03;;
2031;SDS011;27625;50.422;7.944;2022-07-29T02:27:03;5.30;;;3.00;;
2031;SDS011;27625;50.422;7.944;2022-07-29T02:29:30;4.00;;;2.90;;
2031;SDS011;27625;50.422;7.944;2022-07-29T02:31:58;4.60;;;2.63;;
2031;SDS011;27625;50.422;7.944;2022-07-29T02:34:27;5.70;;;2.87;;
2031;SDS011;27625;50.422;7.944;2022-07-29T02:36:54;5.50;;;2.77;;
2031;SDS011;27625;50.422;7.944;2022-07-29T02:39:21;5.60;;;2.90;;
2031;SDS011;27625;50.422;7.944;2022-07-29T02:41:50;5.10;;;3.20;;
2031;SDS011;27625;50.422;7.944;2022-07-29T02:44:19;4.83;;;2.73;;
2031;SDS011;27625;50.422;7.944;2022-07-29T02:46:47;7.50;;;2.67;;
2031;SDS011;27625;50.422;7.944;2022-07-29T02:49:17;9.97;;;3.23;;
2031;SDS011;27625;50.422;7.944;2022-07-29T02:51:51;4.67;;;2.53;;
2031;SDS011;27625;50.422;7.944;2022-07-29T02:54:21;3.60;;;2.53;;
2031;SDS011;27625;50.422;7.944;2022-07-29T02:56:50;4.80;;;2.93;;
2031;SDS011;27625;50.422;7.944;2022-07-29T02:59:21;4.27;;;3.00;;
2031;SDS011;27625;50.422;7.944;2022-07-29T03:01:49;3.63;;;2.70;;
2031;SDS011;27625;50.422;7.944;2022-07-29T03:04:19;6.40;;;2.80;;
2031;SDS011;27625;50.422;7.944;2022-07-29T03:06:46;6.10;;;2.70;;
2031;SDS011;27625;50.422;7.944;2022-07-29T03:09:14;4.00;;;2.60;;
2031;SDS011;27625;50.422;7.944;2022-07-29T03:11:41;4.23;;;2.80;;
2031;SDS011;27625;50.422;7.944;2022-07-29T03:14:08;9.43;;;3.53;;
2031;SDS011;27625;50.422;7.944;2022-07-29T03:16:35;5.20;;;2.93;;
2031;SDS011;27625;50.422;7.944;2022-07-29T03:19:02;8.27;;;3.30;;
2031;SDS011;27625;50.422;7.944;2022-07-29T03:21:29;5.53;;;2.93;;
2031;SDS011;27625;50.422;7.944;2022-07-29T03:23:55;7.97;;;2.70;;
2031;SDS011;27625;50.422;7.944;2022-07-29T03:26:23;3.90;;;2.80;;
2031;SDS011;27625;50.422;7.944;2022-07-29T03:28:50;5.40;;;3.07;;
2031;SDS011;27625;50.422;7.944;2022-07-29T03:31:16;4.40;;;2.90;;
2031;SDS011;27625;50.422;7.944;2022-07-29T03:33:43;5.27;;;2.87;;
2031;SDS011;27625;50.422;7.944;2022-07-29T03:36:09;7.23;;;2.60;;
2031;SDS011;27625;50.422;7.944;2022-07-29T03:38:38;4.00;;;2.80;;
2031;SDS011;27625;50.422;7.944;2022-07-29T03:41:07;5.77;;;3.00;;
2031;SDS011;27625;50.422;7.944;2022-07-29T03:43:37;3.90;;;2.80;;
2031;SDS011;27625;50.422;7.944;2022-07-29T03:46:06;5.67;;;2.60;;
2031;SDS011;27625;50.422;7.944;2022-07-29T03:48:33;11.17;;;3.00;;
2031;SDS011;27625;50.422;7.944;2022-07-29T03:51:01;6.83;;;3.10;;
2031;SDS011;27625;50.422;7.944;2022-07-29T03:53:28;4.50;;;3.17;;
2031;SDS011;27625;50.422;7.944;2022-07-29T03:55:58;5.80;;;3.07;;
2031;SDS011;27625;50.422;7.944;2022-07-29T03:58:26;6.80;;;3.20;;
2031;SDS011;27625;50.422;7.944;2022-07-29T04:00:55;4.20;;;2.90;;
2031;SDS011;27625;50.422;7.944;2022-07-29T04:03:21;5.30;;;2.77;;
2031;SDS011;27625;50.422;7.944;2022-07-29T04:05:57;5.30;;;2.90;;
2031;SDS011;27625;50.422;7.944;2022-07-29T04:08:24;6.50;;;3.10;;
2031;SDS011;27625;50.422;7.944;2022-07-29T04:10:50;5.20;;;2.80;;
2031;SDS011;27625;50.422;7.944;2022-07-29T04:13:17;5.00;;;3.13;;
2031;SDS011;27625;50.422;7.944;2022-07-29T04:15:45;5.47;;;3.13;;
2031;SDS011;27625;50.422;7.944;2022-07-29T04:18:13;5.73;;;3.30;;
2031;SDS011;27625;50.422;7.944;2022-07-29T04:20:40;4.63;;;3.10;;
2031;SDS011;27625;50.422;7.944;2022-07-29T04:23:06;6.27;;;3.37;;
2031;SDS011;27625;50.422;7.944;2022-07-29T04:25:33;5.20;;;3.10;;
2031;SDS011;27625;50.422;7.944;2022-07-29T04:27:59;6.27;;;2.90;;
2031;SDS011;27625;50.422;7.944;2022-07-29T04:30:26;4.80;;;3.13;;
2031;SDS011;27625;50.422;7.944;2022-07-29T04:32:52;4.07;;;2.90;;
2031;SDS011;27625;50.422;7.944;2022-07-29T04:35:20;4.70;;;2.73;;
2031;SDS011;27625;50.422;7.944;2022-07-29T04:37:47;5.07;;;2.87;;
2031;SDS011;27625;50.422;7.944;2022-07-29T04:40:13;4.97;;;3.20;;
2031;SDS011;27625;50.422;7.944;2022-07-29T04:42:40;8.03;;;3.07;;
2031;SDS011;27625;50.422;7.944;2022-07-29T04:45:07;4.47;;;2.93;;
2031;SDS011;27625;50.422;7.944;2022-07-29T04:47:37;6.50;;;3.10;;
2031;SDS011;27625;50.422;7.944;2022-07-29T04:50:04;5.80;;;3.13;;
2031;SDS011;27625;50.422;7.944;2022-07-29T04:52:33;5.10;;;2.90;;
2031;SDS011;27625;50.422;7.944;2022-07-29T04:55:00;7.30;;;3.63;;
2031;SDS011;27625;50.422;7.944;2022-07-29T04:57:27;7.67;;;2.90;;
2031;SDS011;27625;50.422;7.944;2022-07-29T04:59:53;5.87;;;3.10;;
2031;SDS011;27625;50.422;7.944;2022-07-29T05:02:20;6.33;;;3.00;;
2031;SDS011;27625;50.422;7.944;2022-07-29T05:04:46;6.90;;;3.07;;
2031;SDS011;27625;50.422;7.944;2022-07-29T05:07:13;5.47;;;3.03;;
2031;SDS011;27625;50.422;7.944;2022-07-29T05:09:41;5.00;;;2.70;;
2031;SDS011;27625;50.422;7.944;2022-07-29T05:12:08;4.13;;;2.77;;
2031;SDS011;27625;50.422;7.944;2022-07-29T05:14:35;8.10;;;2.90;;
2031;SDS011;27625;50.422;7.944;2022-07-29T05:17:01;5.30;;;2.90;;
2031;SDS011;27625;50.422;7.944;2022-07-29T05:19:28;6.00;;;2.90;;
2031;SDS011;27625;50.422;7.944;2022-07-29T05:21:54;6.20;;;2.80;;
2031;SDS011;27625;50.422;7.944;2022-07-29T05:24:21;6.00;;;2.80;;
2031;SDS011;27625;50.422;7.944;2022-07-29T05:26:49;4.17;;;2.70;;
2031;SDS011;27625;50.422;7.944;2022-07-29T05:29:15;14.30;;;3.10;;
2031;SDS011;27625;50.422;7.944;2022-07-29T05:31:42;5.27;;;2.40;;
2031;SDS011;27625;50.422;7.944;2022-07-29T05:34:08;6.70;;;2.60;;
2031;SDS011;27625;50.422;7.944;2022-07-29T05:36:35;4.07;;;2.80;;
2031;SDS011;27625;50.422;7.944;2022-07-29T05:39:01;6.20;;;2.60;;
2031;SDS011;27625;50.422;7.944;2022-07-29T05:41:31;5.00;;;2.70;;
2031;SDS011;27625;50.422;7.944;2022-07-29T05:43:59;6.37;;;2.90;;
2031;SDS011;27625;50.422;7.944;2022-07-29T05:46:25;7.70;;;2.80;;
2031;SDS011;27625;50.422;7.944;2022-07-29T05:48:52;6.50;;;2.63;;
2031;SDS011;27625;50.422;7.944;2022-07-29T05:51:18;5.40;;;2.87;;
2031;SDS011;27625;50.422;7.944;2022-07-29T05:53:45;3.97;;;2.60;;
2031;SDS011;27625;50.422;7.944;2022-07-29T05:56:11;4.70;;;2.90;;
2031;SDS011;27625;50.422;7.944;2022-07-29T05:58:38;4.37;;;2.47;;
2031;SDS011;27625;50.422;7.944;2022-07-29T06:01:06;5.10;;;2.63;;
2031;SDS011;27625;50.422;7.944;2022-07-29T06:03:32;6.00;;;2.50;;
2031;SDS011;27625;50.422;7.944;2022-07-29T06:05:59;4.70;;;2.37;;
2031;SDS011;27625;50.422;7.944;2022-07-29T06:08:26;4.53;;;2.60;;
2031;SDS011;27625;50.422;7.944;2022-07-29T06:10:52;8.90;;;3.40;;
2031;SDS011;27625;50.422;7.944;2022-07-29T06:13:22;5.43;;;2.67;;
2031;SDS011;27625;50.422;7.944;2022-07-29T06:15:57;6.27;;;2.60;;
2031;SDS011;27625;50.422;7.944;2022-07-29T06:18:24;4.43;;;2.53;;
2031;SDS011;27625;50.422;7.944;2022-07-29T06:20:51;5.90;;;2.80;;
2031;SDS011;27625;50.422;7.944;2022-07-29T06:23:19;8.80;;;3.20;;
2031;SDS011;27625;50.422;7.944;2022-07-29T06:25:45;4.97;;;2.73;;
2031;SDS011;27625;50.422;7.944;2022-07-29T06:28:13;4.20;;;2.57;;
2031;SDS011;27625;50.422;7.944;2022-07-29T06:30:40;7.23;;;2.87;;
2031;SDS011;27625;50.422;7.944;2022-07-29T06:33:06;5.60;;;2.80;;
2031;SDS011;27625;50.422;7.944;2022-07-29T06:35:35;5.80;;;2.90;;
2031;SDS011;27625;50.422;7.944;2022-07-29T06:38:01;4.70;;;2.70;;
2031;SDS011;27625;50.422;7.944;2022-07-29T06:40:28;7.10;;;3.00;;
2031;SDS011;27625;50.422;7.944;2022-07-29T06:43:12;4.83;;;2.70;;
2031;SDS011;27625;50.422;7.944;2022-07-29T06:45:39;7.23;;;3.10;;
2031;SDS011;27625;50.422;7.944;2022-07-29T06:48:07;8.97;;;2.90;;
2031;SDS011;27625;50.422;7.944;2022-07-29T06:50:35;5.13;;;2.80;;
2031;SDS011;27625;50.422;7.944;2022-07-29T06:53:02;5.80;;;2.90;;
2031;SDS011;27625;50.422;7.944;2022-07-29T06:55:28;10.50;;;3.20;;
2031;SDS011;27625;50.422;7.944;2022-07-29T06:57:55;9.43;;;3.03;;
2031;SDS011;27625;50.422;7.944;2022-07-29T07:00:21;4.67;;;2.77;;
2031;SDS011;27625;50.422;7.944;2022-07-29T07:02:48;4.90;;;3.07;;
2031;SDS011;27625;50.422;7.944;2022-07-29T07:05:14;8.20;;;3.37;;
2031;SDS011;27625;50.422;7.944;2022-07-29T07:07:42;5.67;;;3.00;;
2031;SDS011;27625;50.422;7.944;2022-07-29T07:10:09;3.77;;;2.70;;
2031;SDS011;27625;50.422;7.944;2022-07-29T07:12:35;4.40;;;2.60;;
2031;SDS011;27625;50.422;7.944;2022-07-29T07:15:02;5.17;;;3.27;;
2031;SDS011;27625;50.422;7.944;2022-07-29T07:17:29;7.10;;;3.20;;
2031;SDS011;27625;50.422;7.944;2022-07-29T07:19:55;6.70;;;3.00;;
2031;SDS011;27625;50.422;7.944;2022-07-29T07:22:22;6.10;;;3.10;;
2031;SDS011;27625;50.422;7.944;2022-07-29T07:24:50;5.43;;;2.70;;
2031;SDS011;27625;50.422;7.944;2022-07-29T07:27:16;10.00;;;3.37;;
2031;SDS011;27625;50.422;7.944;2022-07-29T07:29:43;7.07;;;3.20;;
2031;SDS011;27625;50.422;7.944;2022-07-29T07:32:09;6.87;;;3.70;;
2031;SDS011;27625;50.422;7.944;2022-07-29T07:34:38;7.70;;;3.17;;
2031;SDS011;27625;50.422;7.944;2022-07-29T07:37:04;6.00;;;3.20;;
2031;SDS011;27625;50.422;7.944;2022-07-29T07:39:31;6.93;;;3.10;;
2031;SDS011;27625;50.422;7.944;2022-07-29T07:41:58;7.70;;;3.83;;
2031;SDS011;27625;50.422;7.944;2022-07-29T07:44:27;7.83;;;3.47;;
2031;SDS011;27625;50.422;7.944;2022-07-29T07:46:53;7.50;;;2.90;;
2031;SDS011;27625;50.422;7.944;2022-07-29T07:49:19;4.80;;;3.33;;
2031;SDS011;27625;50.422;7.944;2022-07-29T07:51:46;11.17;;;3.10;;
2031;SDS011;27625;50.422;7.944;2022-07-29T07:54:13;8.57;;;3.23;;
2031;SDS011;27625;50.422;7.944;2022-07-29T07:56:39;5.67;;;3.00;;
2031;SDS011;27625;50.422;7.944;2022-07-29T07:59:10;5.60;;;3.40;;
2031;SDS011;27625;50.422;7.944;2022-07-29T08:01:36;5.70;;;2.90;;
2031;SDS011;27625;50.422;7.944;2022-07-29T08:04:03;6.33;;;3.50;;
2031;SDS011;27625;50.422;7.944;2022-07-29T08:06:30;5.20;;;2.73;;
2031;SDS011;27625;50.422;7.944;2022-07-29T08:08:59;11.67;;;3.67;;
2031;SDS011;27625;50.422;7.944;2022-07-29T08:11:26;8.90;;;3.37;;
2031;SDS011;27625;50.422;7.944;2022-07-29T08:13:53;4.10;;;3.20;;
2031;SDS011;27625;50.422;7.944;2022-07-29T08:16:21;4.17;;;2.97;;
2031;SDS011;27625;50.422;7.944;2022-07-29T08:18:50;5.20;;;3.70;;
2031;SDS011;27625;50.422;7.944;2022-07-29T08:21:21;5.90;;;3.40;;
2031;SDS011;27625;50.422;7.944;2022-07-29T08:23:49;5.87;;;3.67;;
2031;SDS011;27625;50.422;7.944;2022-07-29T08:26:17;7.60;;;3.17;;
2031;SDS011;27625;50.422;7.944;2022-07-29T08:28:47;8.70;;;3.40;;
2031;SDS011;27625;50.422;7.944;2022-07-29T08:31:15;3.80;;;2.90;;
2031;SDS011;27625;50.422;7.944;2022-07-29T08:33:44;5.90;;;3.40;;
2031;SDS011;27625;50.422;7.944;2022-07-29T08:36:10;5.37;;;3.10;;
2031;SDS011;27625;50.422;7.944;2022-07-29T08:38:38;5.90;;;3.37;;
2031;SDS011;27625;50.422;7.944;2022-07-29T08:41:04;6.13;;;3.93;;
2031;SDS011;27625;50.422;7.944;2022-07-29T08:43:31;4.90;;;3.13;;
2031;SDS011;27625;50.422;7.944;2022-07-29T08:46:00;4.50;;;2.97;;
2031;SDS011;27625;50.422;7.944;2022-07-29T08:48:26;5.60;;;3.37;;
2031;SDS011;27625;50.422;7.944;2022-07-29T08:50:55;5.03;;;3.20;;
2031;SDS011;27625;50.422;7.944;2022-07-29T08:53:23;8.67;;;3.57;;
2031;SDS011;27625;50.422;7.944;2022-07-29T08:55:51;5.00;;;3.57;;
2031;SDS011;27625;50.422;7.944;2022-07-29T08:58:19;5.50;;;3.63;;
2031;SDS011;27625;50.422;7.944;2022-07-29T09:00:48;7.17;;;3.67;;
2031;SDS011;27625;50.422;7.944;2022-07-29T09:03:17;5.40;;;3.07;;
2031;SDS011;27625;50.422;7.944;2022-07-29T09:05:45;4.57;;;3.50;;
2031;SDS011;27625;50.422;7.944;2022-07-29T09:08:14;5.80;;;3.20;;
2031;SDS011;27625;50.422;7.944;2022-07-29T09:10:41;6.17;;;3.50;;
2031;SDS011;27625;50.422;7.944;2022-07-29T09:13:08;5.50;;;3.57;;
2031;SDS011;27625;50.422;7.944;2022-07-29T09:15:34;5.93;;;3.17;;
2031;SDS011;27625;50.422;7.944;2022-07-29T09:18:01;6.60;;;3.10;;
2031;SDS011;27625;50.422;7.944;2022-07-29T09:20:28;6.90;;;3.33;;
2031;SDS011;27625;50.422;7.944;2022-07-29T09:23:18;6.40;;;3.40;;
2031;SDS011;27625;50.422;7.944;2022-07-29T09:25:45;11.17;;;3.97;;
2031;SDS011;27625;50.422;7.944;2022-07-29T09:28:12;7.23;;;3.40;;
2031;SDS011;27625;50.422;7.944;2022-07-29T09:30:49;5.00;;;3.60;;
2031;SDS011;27625;50.422;7.944;2022-07-29T09:33:16;7.77;;;3.30;;
2031;SDS011;27625;50.422;7.944;2022-07-29T09:35:43;4.67;;;3.43;;
2031;SDS011;27625;50.422;7.944;2022-07-29T09:38:10;5.87;;;3.17;;
2031;SDS011;27625;50.422;7.944;2022-07-29T09:40:39;9.20;;;3.17;;
2031;SDS011;27625;50.422;7.944;2022-07-29T09:43:09;4.90;;;3.40;;
2031;SDS011;27625;50.422;7.944;2022-07-29T09:45:36;6.43;;;3.43;;
2031;SDS011;27625;50.422;7.944;2022-07-29T09:48:12;9.20;;;3.73;;
2031;SDS011;27625;50.422;7.944;2022-07-29T09:50:40;5.70;;;3.93;;
2031;SDS011;27625;50.422;7.944;2022-07-29T09:53:08;6.07;;;3.63;;
2031;SDS011;27625;50.422;7.944;2022-07-29T09:55:46;7.90;;;4.00;;
2031;SDS011;27625;50.422;7.944;2022-07-29T09:58:15;7.53;;;3.70;;
2031;SDS011;27625;50.422;7.944;2022-07-29T10:00:42;5.47;;;3.57;;
2031;SDS011;27625;50.422;7.944;2022-07-29T10:03:09;4.83;;;3.33;;
2031;SDS011;27625;50.422;7.944;2022-07-29T10:05:36;4.80;;;3.20;;
2031;SDS011;27625;50.422;7.944;2022-07-29T10:08:04;5.23;;;3.43;;
2031;SDS011;27625;50.422;7.944;2022-07-29T10:10:33;5.20;;;3.87;;
2031;SDS011;27625;50.422;7.944;2022-07-29T10:13:02;13.30;;;3.83;;
2031;SDS011;27625;50.422;7.944;2022-07-29T10:15:31;6.73;;;4.00;;
2031;SDS011;27625;50.422;7.944;2022-07-29T10:18:02;4.90;;;3.47;;
2031;SDS011;27625;50.422;7.944;2022-07-29T10:20:29;4.90;;;3.87;;
2031;SDS011;27625;50.422;7.944;2022-07-29T10:22:55;9.80;;;3.80;;
2031;SDS011;27625;50.422;7.944;2022-07-29T10:25:23;5.57;;;4.13;;
2031;SDS011;27625;50.422;7.944;2022-07-29T10:27:50;4.80;;;3.97;;
2031;SDS011;27625;50.422;7.944;2022-07-29T10:30:19;7.20;;;3.27;;
2031;SDS011;27625;50.422;7.944;2022-07-29T10:32:54;7.80;;;4.00;;
2031;SDS011;27625;50.422;7.944;2022-07-29T10:35:32;5.83;;;3.83;;
2031;SDS011;27625;50.422;7.944;2022-07-29T10:38:29;7.90;;;3.90;;
2031;SDS011;27625;50.422;7.944;2022-07-29T10:41:03;5.43;;;3.90;;
2031;SDS011;27625;50.422;7.944;2022-07-29T10:43:52;11.57;;;4.30;;
2031;SDS011;27625;50.422;7.944;2022-07-29T10:46:22;9.50;;;4.17;;
2031;SDS011;27625;50.422;7.944;2022-07-29T10:49:04;4.43;;;3.70;;
2031;SDS011;27625;50.422;7.944;2022-07-29T10:54:48;5.30;;;3.60;;
2031;SDS011;27625;50.422;7.944;2022-07-29T10:57:17;3.87;;;3.47;;
2031;SDS011;27625;50.422;7.944;2022-07-29T10:59:50;8.20;;;4.57;;
2031;SDS011;27625;50.422;7.944;2022-07-29T11:02:41;6.40;;;4.20;;
2031;SDS011;27625;50.422;7.944;2022-07-29T11:05:09;5.77;;;3.80;;
2031;SDS011;27625;50.422;7.944;2022-07-29T11:07:38;6.63;;;4.07;;
2031;SDS011;27625;50.422;7.944;2022-07-29T11:10:24;6.83;;;3.80;;
2031;SDS011;27625;50.422;7.944;2022-07-29T11:12:50;5.17;;;3.87;;
2031;SDS011;27625;50.422;7.944;2022-07-29T11:15:18;6.17;;;3.50;;
2031;SDS011;27625;50.422;7.944;2022-07-29T11:20:34;7.00;;;4.13;;
2031;SDS011;27625;50.422;7.944;2022-07-29T11:23:19;25.63;;;4.97;;
2031;SDS011;27625;50.422;7.944;2022-07-29T11:28:42;5.33;;;3.70;;
2031;SDS011;27625;50.422;7.944;2022-07-29T11:31:16;6.13;;;3.83;;
2031;SDS011;27625;50.422;7.944;2022-07-29T11:33:44;5.60;;;4.10;;
2031;SDS011;27625;50.422;7.944;2022-07-29T11:36:12;6.40;;;4.30;;
2031;SDS011;27625;50.422;7.944;2022-07-29T11:38:39;6.20;;;3.90;;
2031;SDS011;27625;50.422;7.944;2022-07-29T11:41:22;7.50;;;3.80;;
2031;SDS011;27625;50.422;7.944;2022-07-29T11:43:49;6.83;;;3.77;;
2031;SDS011;27625;50.422;7.944;2022-07-29T11:46:18;5.40;;;3.50;;
2031;SDS011;27625;50.422;7.944;2022-07-29T11:49:00;6.60;;;3.83;;
2031;SDS011;27625;50.422;7.944;2022-07-29T11:51:28;7.97;;;3.80;;
2031;SDS011;27625;50.422;7.944;2022-07-29T11:53:55;5.93;;;4.00;;
2031;SDS011;27625;50.422;7.944;2022-07-29T11:56:23;6.97;;;3.93;;
2031;SDS011;27625;50.422;7.944;2022-07-29T11:59:00;7.10;;;3.93;;
2031;SDS011;27625;50.422;7.944;2022-07-29T12:01:29;5.70;;;4.03;;
2031;SDS011;27625;50.422;7.944;2022-07-29T12:04:03;7.23;;;3.83;;
2031;SDS011;27625;50.422;7.944;2022-07-29T12:06:31;4.80;;;3.90;;
2031;SDS011;27625;50.422;7.944;2022-07-29T12:08:58;5.63;;;3.83;;
2031;SDS011;27625;50.422;7.944;2022-07-29T12:11:25;11.20;;;3.93;;
2031;SDS011;27625;50.422;7.944;2022-07-29T12:13:52;5.83;;;3.87;;
2031;SDS011;27625;50.422;7.944;2022-07-29T12:16:19;5.77;;;4.00;;
2031;SDS011;27625;50.422;7.944;2022-07-29T12:18:54;16.67;;;4.70;;
2031;SDS011;27625;50.422;7.944;2022-07-29T12:21:23;5.20;;;3.83;;
2031;SDS011;27625;50.422;7.944;2022-07-29T12:23:53;10.90;;;4.40;;
2031;SDS011;27625;50.422;7.944;2022-07-29T12:26:20;5.40;;;3.90;;
2031;SDS011;27625;50.422;7.944;2022-07-29T12:28:47;6.50;;;3.97;;
2031;SDS011;27625;50.422;7.944;2022-07-29T12:31:14;6.47;;;3.87;;
2031;SDS011;27625;50.422;7.944;2022-07-29T12:33:42;5.53;;;4.53;;
2031;SDS011;27625;50.422;7.944;2022-07-29T12:36:08;6.37;;;4.10;;
2031;SDS011;27625;50.422;7.944;2022-07-29T12:38:37;4.60;;;3.80;;
2031;SDS011;27625;50.422;7.944;2022-07-29T12:41:06;7.17;;;4.00;;
2031;SDS011;27625;50.422;7.944;2022-07-29T12:43:33;5.33;;;3.93;;
2031;SDS011;27625;50.422;7.944;2022-07-29T12:46:11;4.70;;;3.60;;
2031;SDS011;27625;50.422;7.944;2022-07-29T12:48:38;5.57;;;3.97;;
2031;SDS011;27625;50.422;7.944;2022-07-29T12:51:06;7.27;;;4.20;;
2031;SDS011;27625;50.422;7.944;2022-07-29T12:53:34;4.87;;;4.17;;
2031;SDS011;27625;50.422;7.944;2022-07-29T12:56:02;6.03;;;4.70;;
2031;SDS011;27625;50.422;7.944;2022-07-29T12:58:33;4.80;;;4.27;;
2031;SDS011;27625;50.422;7.944;2022-07-29T13:01:04;6.40;;;4.80;;
2031;SDS011;27625;50.422;7.944;2022-07-29T13:03:45;6.00;;;4.20;;
2031;SDS011;27625;50.422;7.944;2022-07-29T13:09:06;5.20;;;3.80;;
2031;SDS011;27625;50.422;7.944;2022-07-29T13:11:36;6.33;;;4.17;;
2031;SDS011;27625;50.422;7.944;2022-07-29T13:14:04;5.37;;;3.90;;
2031;SDS011;27625;50.422;7.944;2022-07-29T13:16:31;4.50;;;3.93;;
2031;SDS011;27625;50.422;7.944;2022-07-29T13:19:05;5.40;;;4.00;;
2031;SDS011;27625;50.422;7.944;2022-07-29T13:21:32;6.47;;;3.97;;
2031;SDS011;27625;50.422;7.944;2022-07-29T13:23:59;6.43;;;3.60;;
2031;SDS011;27625;50.422;7.944;2022-07-29T13:26:26;5.47;;;4.00;;
2031;SDS011;27625;50.422;7.944;2022-07-29T13:28:54;6.40;;;4.60;;
2031;SDS011;27625;50.422;7.944;2022-07-29T13:31:21;6.40;;;4.23;;
2031;SDS011;27625;50.422;7.944;2022-07-29T13:33:48;4.53;;;3.90;;
2031;SDS011;27625;50.422;7.944;2022-07-29T13:36:14;4.70;;;3.77;;
2031;SDS011;27625;50.422;7.944;2022-07-29T13:38:41;34.37;;;8.47;;
2031;SDS011;27625;50.422;7.944;2022-07-29T13:41:07;9.70;;;4.03;;
2031;SDS011;27625;50.422;7.944;2022-07-29T13:43:34;4.83;;;4.00;;
2031;SDS011;27625;50.422;7.944;2022-07-29T13:46:02;5.33;;;3.43;;
2031;SDS011;27625;50.422;7.944;2022-07-29T13:48:28;6.80;;;4.17;;
2031;SDS011;27625;50.422;7.944;2022-07-29T13:50:56;6.83;;;4.23;;
2031;SDS011;27625;50.422;7.944;2022-07-29T13:53:22;5.60;;;4.20;;
2031;SDS011;27625;50.422;7.944;2022-07-29T13:55:49;5.47;;;3.43;;
2031;SDS011;27625;50.422;7.944;2022-07-29T13:58:16;5.77;;;3.63;;
2031;SDS011;27625;50.422;7.944;2022-07-29T14:00:43;11.70;;;4.70;;
2031;SDS011;27625;50.422;7.944;2022-07-29T14:03:11;7.33;;;4.20;;
2031;SDS011;27625;50.422;7.944;2022-07-29T14:05:37;20.17;;;5.53;;
2031;SDS011;27625;50.422;7.944;2022-07-29T14:08:03;6.30;;;4.10;;
2031;SDS011;27625;50.422;7.944;2022-07-29T14:10:30;7.07;;;4.43;;
2031;SDS011;27625;50.422;7.944;2022-07-29T14:12:56;4.63;;;4.00;;
2031;SDS011;27625;50.422;7.944;2022-07-29T14:15:23;15.07;;;4.30;;
2031;SDS011;27625;50.422;7.944;2022-07-29T14:17:49;5.90;;;3.50;;
2031;SDS011;27625;50.422;7.944;2022-07-29T14:20:17;6.23;;;3.00;;
2031;SDS011;27625;50.422;7.944;2022-07-29T14:22:44;5.57;;;3.27;;
2031;SDS011;27625;50.422;7.944;2022-07-29T14:25:11;11.17;;;3.87;;
2031;SDS011;27625;50.422;7.944;2022-07-29T14:27:38;9.93;;;3.53;;
2031;SDS011;27625;50.422;7.944;2022-07-29T14:30:05;4.93;;;3.40;;
2031;SDS011;27625;50.422;7.944;2022-07-29T14:32:33;8.23;;;3.10;;
2031;SDS011;27625;50.422;7.944;2022-07-29T14:34:59;10.20;;;3.13;;
2031;SDS011;27625;50.422;7.944;2022-07-29T14:37:27;8.37;;;3.40;;
2031;SDS011;27625;50.422;7.944;2022-07-29T14:39:54;4.53;;;3.23;;
2031;SDS011;27625;50.422;7.944;2022-07-29T14:42:24;6.43;;;3.90;;
2031;SDS011;27625;50.422;7.944;2022-07-29T14:44:50;4.60;;;3.00;;
2031;SDS011;27625;50.422;7.944;2022-07-29T14:47:17;4.17;;;3.07;;
2031;SDS011;27625;50.422;7.944;2022-07-29T14:49:44;6.27;;;3.30;;
2031;SDS011;27625;50.422;7.944;2022-07-29T14:52:11;16.23;;;3.60;;
2031;SDS011;27625;50.422;7.944;2022-07-29T14:54:38;9.67;;;3.20;;
2031;SDS011;27625;50.422;7.944;2022-07-29T14:57:05;6.40;;;3.70;;
2031;SDS011;27625;50.422;7.944;2022-07-29T14:59:31;6.47;;;3.60;;
2031;SDS011;27625;50.422;7.944;2022-07-29T15:01:58;9.17;;;3.13;;
2031;SDS011;27625;50.422;7.944;2022-07-29T15:04:24;6.20;;;3.00;;
2031;SDS011;27625;50.422;7.944;2022-07-29T15:06:51;5.83;;;3.03;;
2031;SDS011;27625;50.422;7.944;2022-07-29T15:09:18;6.03;;;3.73;;
2031;SDS011;27625;50.422;7.944;2022-07-29T15:11:46;6.97;;;3.20;;
2031;SDS011;27625;50.422;7.944;2022-07-29T15:14:12;7.13;;;3.33;;
2031;SDS011;27625;50.422;7.944;2022-07-29T15:16:39;6.50;;;3.40;;
2031;SDS011;27625;50.422;7.944;2022-07-29T15:19:07;5.17;;;3.20;;
2031;SDS011;27625;50.422;7.944;2022-07-29T15:21:33;6.23;;;3.50;;